createdAt,value
2023-05-05T00:00:50.441Z,2385.00
2023-05-05T00:01:50.514Z,2339.00
2023-05-05T00:02:50.557Z,2357.00
2023-05-05T00:03:50.707Z,2419.00
2023-05-05T00:04:50.648Z,2432.00
2023-05-05T00:05:50.650Z,2453.00
2023-05-05T00:06:50.661Z,2479.00
2023-05-05T00:07:50.684Z,2473.00
2023-05-05T00:08:50.719Z,2447.00
2023-05-05T00:09:50.773Z,2411.00
2023-05-05T00:10:50.774Z,2422.00
2023-05-05T00:11:50.808Z,2423.00
2023-05-05T00:12:50.877Z,2431.00
2023-05-05T00:13:50.896Z,2441.00
2023-05-05T00:14:50.931Z,2436.00
2023-05-05T00:15:51.006Z,2451.00
2023-05-05T00:16:51.056Z,2428.00
2023-05-05T00:17:51.106Z,2432.00
2023-05-05T00:18:51.101Z,2422.00
2023-05-05T00:19:51.161Z,2402.00
2023-05-05T00:20:51.197Z,2413.00
2023-05-05T00:21:51.208Z,2390.00
2023-05-05T00:22:51.255Z,2406.00
2023-05-05T00:23:51.281Z,2417.00
2023-05-05T00:24:51.315Z,2446.00
2023-05-05T00:25:51.346Z,2437.00
2023-05-05T00:26:51.398Z,2434.00
2023-05-05T00:27:51.413Z,2448.00
2023-05-05T00:28:51.460Z,2449.00
2023-05-05T00:29:51.522Z,2460.00
2023-05-05T00:30:51.594Z,2447.00
2023-05-05T00:31:51.564Z,2462.00
2023-05-05T00:32:51.634Z,2440.00
2023-05-05T00:33:51.658Z,2453.00
2023-05-05T00:34:51.817Z,2472.00
2023-05-05T00:35:51.974Z,2477.00
2023-05-05T00:36:52.114Z,2475.00
2023-05-05T00:37:52.253Z,2454.00
2023-05-05T00:38:52.384Z,2473.00
2023-05-05T00:39:52.529Z,2508.00
2023-05-05T00:40:52.537Z,2502.00
2023-05-05T00:41:52.619Z,2539.00
2023-05-05T00:42:52.638Z,2502.00
2023-05-05T00:43:52.624Z,2521.00
2023-05-05T00:44:52.603Z,2521.00
2023-05-05T00:45:52.592Z,2530.00
2023-05-05T00:46:52.669Z,2541.00
2023-05-05T00:47:52.762Z,2557.00
2023-05-05T00:48:52.614Z,2585.00
2023-05-05T00:49:52.573Z,2589.00
2023-05-05T00:50:52.564Z,2590.00
2023-05-05T00:51:52.572Z,2623.00
2023-05-05T00:52:52.551Z,2601.00
2023-05-05T00:53:52.591Z,2617.00
2023-05-05T00:54:52.580Z,2618.00
2023-05-05T00:55:52.560Z,2606.00
2023-05-05T00:56:52.570Z,2612.00
2023-05-05T00:57:52.598Z,2611.00
2023-05-05T00:58:52.541Z,2623.00
2023-05-05T00:59:52.539Z,2624.00
2023-05-05T01:00:52.547Z,2584.00
2023-05-05T01:01:52.562Z,2586.00
2023-05-05T01:02:52.729Z,2639.00
2023-05-05T01:03:52.599Z,2593.00
2023-05-05T01:04:52.504Z,2572.00
2023-05-05T01:05:52.498Z,2573.00
2023-05-05T01:06:52.497Z,2572.00
2023-05-05T01:07:52.488Z,2529.00
2023-05-05T01:08:52.489Z,2546.00
2023-05-05T01:10:15.239Z,2513.00
2023-05-05T01:10:53.484Z,2489.00
2023-05-05T01:11:52.483Z,2462.00
2023-05-05T01:12:52.956Z,2485.00
2023-05-05T01:13:52.463Z,2410.00
2023-05-05T01:14:52.437Z,2370.00
2023-05-05T01:15:52.480Z,2384.00
2023-05-05T01:16:52.440Z,2416.00
2023-05-05T01:17:52.483Z,2464.00
2023-05-05T01:18:52.440Z,2408.00
2023-05-05T01:19:52.418Z,2338.00
2023-05-05T01:20:52.411Z,2287.00
2023-05-05T01:21:52.407Z,2245.00
2023-05-05T01:22:52.413Z,2181.00
2023-05-05T01:23:52.376Z,2203.00
2023-05-05T01:24:52.401Z,2257.00
2023-05-05T01:25:52.439Z,2292.00
2023-05-05T01:26:52.440Z,2282.00
2023-05-05T01:27:52.487Z,2313.00
2023-05-05T01:28:52.488Z,2290.00
2023-05-05T01:29:52.539Z,2374.00
2023-05-05T01:30:52.544Z,2294.00
2023-05-05T01:31:52.603Z,2295.00
2023-05-05T01:32:52.633Z,2332.00
2023-05-05T01:33:52.607Z,2216.00
2023-05-05T01:34:52.625Z,2272.00
2023-05-05T01:35:52.651Z,2223.00
2023-05-05T01:36:52.660Z,2216.00
2023-05-05T01:37:52.672Z,2270.00
2023-05-05T01:38:52.673Z,2210.00
2023-05-05T01:39:52.711Z,2296.00
2023-05-05T01:40:52.739Z,2281.00
2023-05-05T01:41:52.728Z,2265.00
2023-05-05T01:42:52.781Z,2324.00
2023-05-05T01:43:52.792Z,2234.00
2023-05-05T01:44:52.829Z,2245.00
2023-05-05T01:45:52.877Z,2216.00
2023-05-05T01:46:52.839Z,2267.00
2023-05-05T01:47:52.948Z,2272.00
2023-05-05T01:48:52.860Z,2308.00
2023-05-05T01:49:52.871Z,2417.00
2023-05-05T01:50:52.882Z,2413.00
2023-05-05T01:51:52.894Z,2415.00
2023-05-05T01:52:52.920Z,2398.00
2023-05-05T01:53:52.947Z,2429.00
2023-05-05T01:54:52.965Z,2412.00
2023-05-05T01:55:53.007Z,2405.00
2023-05-05T01:56:53.088Z,2405.00
2023-05-05T01:57:53.086Z,2445.00
2023-05-05T01:58:53.141Z,2458.00
2023-05-05T01:59:53.255Z,2416.00
2023-05-05T02:00:53.185Z,2443.00
2023-05-05T02:01:53.235Z,2407.00
2023-05-05T02:02:53.383Z,2437.00
2023-05-05T02:03:53.292Z,2495.00
2023-05-05T02:04:53.291Z,2494.00
2023-05-05T02:05:53.331Z,2494.00
2023-05-05T02:06:53.428Z,2497.00
2023-05-05T02:07:53.364Z,2506.00
2023-05-05T02:08:53.399Z,2458.00
2023-05-05T02:09:53.423Z,2402.00
2023-05-05T02:10:53.434Z,2384.00
2023-05-05T02:11:53.468Z,2433.00
2023-05-05T02:12:53.478Z,2402.00
2023-05-05T02:13:53.539Z,2428.00
2023-05-05T02:14:53.553Z,2430.00
2023-05-05T02:15:53.574Z,2501.00
2023-05-05T02:16:53.592Z,2503.00
2023-05-05T02:17:53.626Z,2492.00
2023-05-05T02:18:53.650Z,2490.00
2023-05-05T02:19:53.676Z,2485.00
2023-05-05T02:20:53.726Z,2507.00
2023-05-05T02:21:53.772Z,2491.00
2023-05-05T02:22:53.827Z,2478.00
2023-05-05T02:23:53.820Z,2504.00
2023-05-05T02:24:53.856Z,2471.00
2023-05-05T02:25:53.869Z,2471.00
2023-05-05T02:26:53.920Z,2451.00
2023-05-05T02:27:53.960Z,2470.00
2023-05-05T02:28:53.970Z,2444.00
2023-05-05T02:29:54.014Z,2470.00
2023-05-05T02:30:54.072Z,2492.00
2023-05-05T02:31:54.212Z,2491.00
2023-05-05T02:32:54.206Z,2458.00
2023-05-05T02:33:54.180Z,2471.00
2023-05-05T02:34:54.214Z,2506.00
2023-05-05T02:35:54.238Z,2479.00
2023-05-05T02:36:54.247Z,2500.00
2023-05-05T02:37:54.276Z,2516.00
2023-05-05T02:38:54.301Z,2533.00
2023-05-05T02:39:54.318Z,2568.00
2023-05-05T02:40:54.350Z,2620.00
2023-05-05T02:41:54.400Z,2639.00
2023-05-05T02:42:54.477Z,2584.00
2023-05-05T02:43:54.449Z,2495.00
2023-05-05T02:44:54.502Z,2449.00
2023-05-05T02:45:54.517Z,2457.00
2023-05-05T02:46:54.709Z,2457.00
2023-05-05T02:47:54.742Z,2474.00
2023-05-05T02:48:54.831Z,2504.00
2023-05-05T02:49:54.970Z,2536.00
2023-05-05T02:50:55.128Z,2570.00
2023-05-05T02:51:55.388Z,2553.00
2023-05-05T02:52:55.524Z,2542.00
2023-05-05T02:53:55.790Z,2567.00
2023-05-05T02:54:55.971Z,2557.00
2023-05-05T02:55:56.149Z,2517.00
2023-05-05T02:56:56.194Z,2517.00
2023-05-05T02:57:56.182Z,2551.00
2023-05-05T02:58:56.388Z,2544.00
2023-05-05T02:59:56.274Z,2504.00
2023-05-05T03:00:56.332Z,2495.00
2023-05-05T03:01:56.368Z,2503.00
2023-05-05T03:02:56.289Z,2492.00
2023-05-05T03:03:56.385Z,2490.00
2023-05-05T03:04:56.230Z,2522.00
2023-05-05T03:05:56.220Z,2533.00
2023-05-05T03:06:56.209Z,2513.00
2023-05-05T03:07:56.257Z,2517.00
2023-05-05T03:08:56.192Z,2527.00
2023-05-05T03:09:56.219Z,2591.00
2023-05-05T03:10:56.190Z,2522.00
2023-05-05T03:11:56.183Z,2472.00
2023-05-05T03:12:56.220Z,2474.00
2023-05-05T03:13:56.179Z,2501.00
2023-05-05T03:14:56.166Z,2455.00
2023-05-05T03:15:56.212Z,2471.00
2023-05-05T03:16:56.138Z,2492.00
2023-05-05T03:17:56.208Z,2480.00
2023-05-05T03:18:56.117Z,2441.00
2023-05-05T03:19:56.105Z,2429.00
2023-05-05T03:20:56.125Z,2441.00
2023-05-05T03:21:56.116Z,2386.00
2023-05-05T03:22:56.105Z,2377.00
2023-05-05T03:23:56.094Z,2475.00
2023-05-05T03:24:56.078Z,2421.00
2023-05-05T03:25:56.066Z,2355.00
2023-05-05T03:26:56.060Z,2312.00
2023-05-05T03:27:56.043Z,2290.00
2023-05-05T03:28:56.040Z,2302.00
2023-05-05T03:29:56.030Z,2353.00
2023-05-05T03:30:56.038Z,2384.00
2023-05-05T03:31:56.082Z,2443.00
2023-05-05T03:32:56.112Z,2482.00
2023-05-05T03:33:56.002Z,2491.00
2023-05-05T03:34:55.996Z,2524.00
2023-05-05T03:35:55.996Z,2534.00
2023-05-05T03:36:55.989Z,2517.00
2023-05-05T03:37:56.007Z,2543.00
2023-05-05T03:38:55.980Z,2544.00
2023-05-05T03:39:55.958Z,2523.00
2023-05-05T03:40:56.001Z,2525.00
2023-05-05T03:41:56.041Z,2553.00
2023-05-05T03:42:56.088Z,2590.00
2023-05-05T03:43:56.138Z,2628.00
2023-05-05T03:44:56.192Z,2585.00
2023-05-05T03:45:56.321Z,2606.00
2023-05-05T03:46:56.297Z,2576.00
2023-05-05T03:47:56.379Z,2594.00
2023-05-05T03:48:56.416Z,2604.00
2023-05-05T03:49:56.480Z,2627.00
2023-05-05T03:50:56.548Z,2610.00
2023-05-05T03:51:56.588Z,2596.00
2023-05-05T03:52:56.636Z,2596.00
2023-05-05T03:53:56.779Z,2576.00
2023-05-05T03:54:56.799Z,2530.00
2023-05-05T03:55:56.852Z,2507.00
2023-05-05T03:56:56.898Z,2533.00
2023-05-05T03:57:56.961Z,2535.00
2023-05-05T03:58:56.994Z,2512.00
2023-05-05T03:59:57.064Z,2512.00
2023-05-05T04:00:57.116Z,2529.00
2023-05-05T04:01:57.182Z,2537.00
2023-05-05T04:02:57.330Z,2544.00
2023-05-05T04:03:57.340Z,2558.00
2023-05-05T04:04:57.347Z,2556.00
2023-05-05T04:05:57.411Z,2550.00
2023-05-05T04:06:57.459Z,2541.00
2023-05-05T04:07:57.510Z,2545.00
2023-05-05T04:08:57.578Z,2540.00
2023-05-05T04:09:57.613Z,2555.00
2023-05-05T04:10:57.662Z,2533.00
2023-05-05T04:11:57.740Z,2553.00
2023-05-05T04:12:57.800Z,2513.00
2023-05-05T04:13:57.843Z,2555.00
2023-05-05T04:14:57.896Z,2500.00
2023-05-05T04:15:57.995Z,2468.00
2023-05-05T04:16:57.988Z,2453.00
2023-05-05T04:17:58.103Z,2450.00
2023-05-05T04:18:58.063Z,2446.00
2023-05-05T04:19:58.125Z,2468.00
2023-05-05T04:20:58.191Z,2486.00
2023-05-05T04:21:58.228Z,2496.00
2023-05-05T04:22:58.298Z,2519.00
2023-05-05T04:23:58.353Z,2562.00
2023-05-05T04:24:58.410Z,2609.00
2023-05-05T04:25:58.483Z,2622.00
2023-05-05T04:26:58.508Z,2630.00
2023-05-05T04:27:58.558Z,2622.00
2023-05-05T04:28:58.620Z,2621.00
2023-05-05T04:29:58.669Z,2617.00
2023-05-05T04:30:58.769Z,2546.00
2023-05-05T04:31:58.767Z,2492.00
2023-05-05T04:32:58.883Z,2433.00
2023-05-05T04:33:58.937Z,2399.00
2023-05-05T04:34:58.971Z,2352.00
2023-05-05T04:35:59.033Z,2310.00
2023-05-05T04:36:59.085Z,2335.00
2023-05-05T04:37:59.185Z,2305.00
2023-05-05T04:38:59.231Z,2324.00
2023-05-05T04:39:59.477Z,2246.00
2023-05-05T04:40:59.431Z,2263.00
2023-05-05T04:41:59.419Z,2330.00
2023-05-05T04:42:59.468Z,2332.00
2023-05-05T04:43:59.538Z,2289.00
2023-05-05T04:44:59.595Z,2272.00
2023-05-05T04:45:59.670Z,2248.00
2023-05-05T04:46:59.712Z,2282.00
2023-05-05T04:47:59.883Z,2284.00
2023-05-05T04:48:59.830Z,2282.00
2023-05-05T04:49:59.877Z,2278.00
2023-05-05T04:50:59.932Z,2256.00
2023-05-05T04:52:00.027Z,2260.00
2023-05-05T04:53:00.084Z,2263.00
2023-05-05T04:54:00.152Z,2270.00
2023-05-05T04:55:00.242Z,2262.00
2023-05-05T04:56:00.253Z,2245.00
2023-05-05T04:57:00.308Z,2253.00
2023-05-05T04:58:00.359Z,2320.00
2023-05-05T04:59:00.471Z,2344.00
2023-05-05T05:00:00.490Z,2362.00
2023-05-05T05:01:00.563Z,2318.00
2023-05-05T05:02:00.631Z,2387.00
2023-05-05T05:03:00.757Z,2380.00
2023-05-05T05:04:00.701Z,2362.00
2023-05-05T05:05:00.752Z,2418.00
2023-05-05T05:06:00.812Z,2405.00
2023-05-05T05:07:00.877Z,2445.00
2023-05-05T05:08:00.850Z,2472.00
2023-05-05T05:09:00.941Z,2468.00
2023-05-05T05:10:00.941Z,2463.00
2023-05-05T05:11:01.014Z,2455.00
2023-05-05T05:12:01.051Z,2471.00
2023-05-05T05:13:01.124Z,2488.00
2023-05-05T05:14:01.125Z,2517.00
2023-05-05T05:15:01.161Z,2549.00
2023-05-05T05:16:01.220Z,2577.00
2023-05-05T05:17:01.232Z,2646.00
2023-05-05T05:18:01.329Z,2713.00
2023-05-05T05:19:01.933Z,2730.00
2023-05-05T05:20:01.310Z,2726.00
2023-05-05T05:21:01.348Z,2701.00
2023-05-05T05:22:01.369Z,2675.00
2023-05-05T05:23:01.470Z,2688.00
2023-05-05T05:24:01.440Z,2692.00
2023-05-05T05:25:01.463Z,2711.00
2023-05-05T05:26:01.578Z,2716.00
2023-05-05T05:27:01.546Z,2708.00
2023-05-05T05:28:10.324Z,2643.00
2023-05-05T05:29:02.966Z,2569.00
2023-05-05T05:30:01.594Z,2584.00
2023-05-05T05:31:01.626Z,2652.00
2023-05-05T05:32:01.598Z,2716.00
2023-05-05T05:33:01.889Z,2845.00
2023-05-05T05:34:01.584Z,2919.00
2023-05-05T05:35:01.526Z,3045.00
2023-05-05T05:36:01.522Z,3080.00
2023-05-05T05:37:01.510Z,3097.00
2023-05-05T05:38:01.530Z,3105.00
2023-05-05T05:39:01.504Z,3150.00
2023-05-05T05:40:01.509Z,3196.00
2023-05-05T05:41:01.512Z,3224.00
2023-05-05T05:42:01.494Z,3282.00
2023-05-05T05:43:01.508Z,3326.00
2023-05-05T05:44:01.480Z,3372.00
2023-05-05T05:45:01.572Z,3397.00
2023-05-05T05:46:01.539Z,3442.00
2023-05-05T05:47:01.472Z,3488.00
2023-05-05T05:48:01.531Z,3544.00
2023-05-05T05:49:01.509Z,3549.00
2023-05-05T05:50:01.598Z,3684.00
2023-05-05T05:51:01.588Z,3795.00
2023-05-05T05:52:01.603Z,3864.00
2023-05-05T05:53:01.602Z,3901.00
2023-05-05T05:54:01.620Z,3936.00
2023-05-05T05:55:01.624Z,3929.00
2023-05-05T05:56:01.596Z,3934.00
2023-05-05T05:57:01.650Z,3971.00
2023-05-05T05:58:01.671Z,3985.00
2023-05-05T05:59:01.704Z,3997.00
2023-05-05T06:00:02.306Z,4001.00
2023-05-05T06:01:01.799Z,4005.00
2023-05-05T06:02:01.940Z,3984.00
2023-05-05T06:03:01.880Z,3955.00
2023-05-05T06:04:01.894Z,3944.00
2023-05-05T06:05:01.859Z,3916.00
2023-05-05T06:06:01.875Z,3892.00
2023-05-05T06:07:01.915Z,3880.00
2023-05-05T06:08:01.944Z,3898.00
2023-05-05T06:09:01.943Z,3953.00
2023-05-05T06:10:14.425Z,3985.00
2023-05-05T06:11:02.982Z,3985.00
2023-05-05T06:12:01.966Z,3966.00
2023-05-05T06:13:02.014Z,3951.00
2023-05-05T06:14:01.974Z,3926.00
2023-05-05T06:15:01.944Z,3916.00
2023-05-05T06:16:02.003Z,3901.00
2023-05-05T06:17:01.925Z,3896.00
2023-05-05T06:18:02.005Z,3891.00
2023-05-05T06:19:02.067Z,3883.00
2023-05-05T06:20:01.900Z,3869.00
2023-05-05T06:21:01.931Z,3853.00
2023-05-05T06:22:01.988Z,3845.00
2023-05-05T06:23:02.043Z,3807.00
2023-05-05T06:24:02.061Z,3804.00
2023-05-05T06:25:02.070Z,3803.00
2023-05-05T06:26:02.136Z,3791.00
2023-05-05T06:27:02.123Z,3776.00
2023-05-05T06:28:02.187Z,3746.00
2023-05-05T06:29:02.194Z,3740.00
2023-05-05T06:30:02.247Z,3732.00
2023-05-05T06:31:02.335Z,3724.00
2023-05-05T06:32:02.643Z,3731.00
2023-05-05T06:33:02.464Z,3688.00
2023-05-05T06:34:02.472Z,3506.00
2023-05-05T06:35:02.517Z,3429.00
2023-05-05T06:36:02.573Z,3310.00
2023-05-05T06:37:02.613Z,3296.00
2023-05-05T06:38:02.639Z,3333.00
2023-05-05T06:39:02.701Z,3304.00
2023-05-05T06:40:02.754Z,3255.00
2023-05-05T06:41:02.769Z,3119.00
2023-05-05T06:42:02.774Z,3000.00
2023-05-05T06:43:02.818Z,3031.00
2023-05-05T06:44:03.107Z,3043.00
2023-05-05T06:45:02.886Z,2999.00
2023-05-05T06:46:02.906Z,3019.00
2023-05-05T06:47:03.156Z,2920.00
2023-05-05T06:48:03.689Z,2863.00
2023-05-05T06:49:02.965Z,2938.00
2023-05-05T06:50:02.992Z,2973.00
2023-05-05T06:51:03.097Z,2995.00
2023-05-05T06:52:03.057Z,3030.00
2023-05-05T06:53:03.050Z,3006.00
2023-05-05T06:54:03.098Z,2959.00
2023-05-05T06:55:03.066Z,2943.00
2023-05-05T06:56:03.071Z,2952.00
2023-05-05T06:57:03.087Z,2955.00
2023-05-05T06:58:03.090Z,2996.00
2023-05-05T06:59:03.126Z,3026.00
2023-05-05T07:00:03.140Z,3023.00
2023-05-05T07:01:03.191Z,3077.00
2023-05-05T07:02:03.141Z,3133.00
2023-05-05T07:03:03.165Z,3172.00
2023-05-05T07:04:03.220Z,3109.00
2023-05-05T07:05:03.143Z,3161.00
2023-05-05T07:06:03.167Z,3194.00
2023-05-05T07:07:03.208Z,3219.00
2023-05-05T07:08:03.207Z,3214.00
2023-05-05T07:09:03.606Z,3304.00
2023-05-05T07:10:03.234Z,3337.00
2023-05-05T07:11:03.247Z,3341.00
2023-05-05T07:12:03.595Z,3346.00
2023-05-05T07:13:03.289Z,3342.00
2023-05-05T07:14:03.286Z,3364.00
2023-05-05T07:15:15.458Z,3349.00
2023-05-05T07:16:04.347Z,3350.00
2023-05-05T07:17:03.289Z,3355.00
2023-05-05T07:18:03.336Z,3361.00
2023-05-05T07:19:03.257Z,3354.00
2023-05-05T07:20:03.327Z,3378.00
2023-05-05T07:21:03.277Z,3367.00
2023-05-05T07:22:03.246Z,3356.00
2023-05-05T07:23:03.235Z,3393.00
2023-05-05T07:24:03.292Z,3382.00
2023-05-05T07:25:03.250Z,3377.00
2023-05-05T07:26:03.225Z,3304.00
2023-05-05T07:27:03.216Z,3192.00
2023-05-05T07:28:03.215Z,3049.00
2023-05-05T07:29:03.187Z,2881.00
2023-05-05T07:30:05.505Z,2818.00
2023-05-05T07:31:03.179Z,2543.00
2023-05-05T07:32:03.720Z,2412.00
2023-05-05T07:33:03.239Z,2586.00
2023-05-05T07:34:03.191Z,2678.00
2023-05-05T07:35:03.155Z,2737.00
2023-05-05T07:36:03.283Z,2788.00
2023-05-05T07:37:03.616Z,2852.00
2023-05-05T07:38:03.138Z,2905.00
2023-05-05T07:39:03.138Z,2950.00
2023-05-05T07:40:03.128Z,2952.00
2023-05-05T07:41:03.110Z,2976.00
2023-05-05T07:42:03.137Z,2987.00
2023-05-05T07:43:03.142Z,3000.00
2023-05-05T07:44:03.099Z,3015.00
2023-05-05T07:45:03.094Z,3037.00
2023-05-05T07:46:03.260Z,2990.00
2023-05-05T07:47:03.153Z,2906.00
2023-05-05T07:48:03.340Z,2882.00
2023-05-05T07:49:03.623Z,2874.00
2023-05-05T07:50:03.620Z,2866.00
2023-05-05T07:51:03.686Z,2835.00
2023-05-05T07:52:03.793Z,2865.00
2023-05-05T07:53:13.809Z,2855.00
2023-05-05T07:54:05.113Z,2858.00
2023-05-05T07:55:03.775Z,2871.00
2023-05-05T07:56:03.832Z,2888.00
2023-05-05T07:57:03.783Z,2925.00
2023-05-05T07:58:03.795Z,2991.00
2023-05-05T07:59:04.099Z,3005.00
2023-05-05T08:00:03.746Z,3022.00
2023-05-05T08:01:03.737Z,3005.00
2023-05-05T08:02:04.122Z,2974.00
2023-05-05T08:03:06.294Z,2958.00
2023-05-05T08:04:03.912Z,2994.00
2023-05-05T08:05:03.803Z,2993.00
2023-05-05T08:06:03.781Z,3001.00
2023-05-05T08:07:03.781Z,3016.00
2023-05-05T08:08:03.856Z,2973.00
2023-05-05T08:09:03.773Z,3028.00
2023-05-05T08:10:03.833Z,3035.00
2023-05-05T08:11:03.746Z,2883.00
2023-05-05T08:12:03.759Z,2744.00
2023-05-05T08:13:03.757Z,2494.00
2023-05-05T08:14:03.761Z,2294.00
2023-05-05T08:15:03.739Z,1789.00
2023-05-05T08:16:03.723Z,1333.00
2023-05-05T08:17:03.737Z,979.00
2023-05-05T08:18:03.742Z,873.00
2023-05-05T08:19:06.225Z,897.00
2023-05-05T08:20:04.687Z,878.00
2023-05-05T08:21:03.675Z,905.00
2023-05-05T08:22:03.697Z,1014.00
2023-05-05T08:23:03.700Z,1351.00
2023-05-05T08:24:04.237Z,1784.00
2023-05-05T08:25:03.652Z,2018.00
2023-05-05T08:26:03.661Z,2141.00
2023-05-05T08:27:03.672Z,2210.00
2023-05-05T08:28:03.700Z,2267.00
2023-05-05T08:29:03.781Z,2268.00
2023-05-05T08:30:03.695Z,2270.00
2023-05-05T08:31:03.726Z,2248.00
2023-05-05T08:32:03.695Z,2293.00
2023-05-05T08:33:03.755Z,2265.00
2023-05-05T08:34:03.749Z,2223.00
2023-05-05T08:35:03.748Z,2085.00
2023-05-05T08:36:03.814Z,2044.00
2023-05-05T08:37:04.008Z,2064.00
2023-05-05T08:38:03.868Z,2159.00
2023-05-05T08:39:03.914Z,2215.00
2023-05-05T08:40:04.016Z,2375.00
2023-05-05T08:41:04.011Z,2492.00
2023-05-05T08:42:04.019Z,2558.00
2023-05-05T08:43:03.996Z,2616.00
2023-05-05T08:44:03.971Z,2667.00
2023-05-05T08:45:04.004Z,2652.00
2023-05-05T08:46:03.990Z,2716.00
2023-05-05T08:47:04.228Z,2740.00
2023-05-05T08:48:04.103Z,2737.00
2023-05-05T08:49:04.156Z,2784.00
2023-05-05T08:50:04.177Z,2827.00
2023-05-05T08:51:05.498Z,2818.00
2023-05-05T08:52:04.271Z,2834.00
2023-05-05T08:53:04.428Z,2831.00
2023-05-05T08:54:04.653Z,2746.00
2023-05-05T08:55:04.443Z,2819.00
2023-05-05T08:56:04.492Z,2747.00
2023-05-05T08:57:04.483Z,2793.00
2023-05-05T08:58:04.560Z,2823.00
2023-05-05T08:59:04.679Z,2785.00
2023-05-05T09:00:04.653Z,2788.00
2023-05-05T09:01:04.749Z,2822.00
2023-05-05T09:02:04.794Z,2876.00
2023-05-05T09:03:05.053Z,2863.00
2023-05-05T09:04:04.947Z,2855.00
2023-05-05T09:05:05.250Z,2851.00
2023-05-05T09:06:05.040Z,2882.00
2023-05-05T09:07:05.088Z,2908.00
2023-05-05T09:08:05.170Z,2903.00
2023-05-05T09:09:05.224Z,2904.00
2023-05-05T09:10:05.283Z,2921.00
2023-05-05T09:11:05.324Z,2933.00
2023-05-05T09:12:05.459Z,2964.00
2023-05-05T09:13:05.570Z,2922.00
2023-05-05T09:14:05.560Z,2948.00
2023-05-05T09:15:05.737Z,2982.00
2023-05-05T09:16:05.623Z,2960.00
2023-05-05T09:17:05.762Z,2981.00
2023-05-05T09:18:05.761Z,2941.00
2023-05-05T09:19:05.811Z,2876.00
2023-05-05T09:20:05.868Z,2881.00
2023-05-05T09:21:05.935Z,2869.00
2023-05-05T09:22:05.983Z,2789.00
2023-05-05T09:23:06.049Z,2787.00
2023-05-05T09:24:08.488Z,2776.00
2023-05-05T09:25:06.370Z,2729.00
2023-05-05T09:26:06.077Z,2823.00
2023-05-05T09:27:06.099Z,2778.00
2023-05-05T09:28:06.470Z,2733.00
2023-05-05T09:29:06.059Z,2709.00
2023-05-05T09:30:06.052Z,2639.00
2023-05-05T09:31:06.080Z,2502.00
2023-05-05T09:32:06.086Z,2521.00
2023-05-05T09:33:06.268Z,2240.00
2023-05-05T09:34:06.021Z,1979.00
2023-05-05T09:35:06.118Z,1529.00
2023-05-05T09:36:06.017Z,1203.00
2023-05-05T09:37:06.185Z,1536.00
2023-05-05T09:38:06.181Z,1056.00
2023-05-05T09:39:06.024Z,700.00
2023-05-05T09:40:05.998Z,526.00
2023-05-05T09:41:05.977Z,400.00
2023-05-05T09:42:05.987Z,443.00
2023-05-05T09:43:05.982Z,459.00
2023-05-05T09:44:06.032Z,497.00
2023-05-05T09:45:06.034Z,634.00
2023-05-05T09:46:05.979Z,746.00
2023-05-05T09:47:15.038Z,668.00
2023-05-05T09:48:07.004Z,675.00
2023-05-05T09:49:05.921Z,712.00
2023-05-05T09:50:06.056Z,632.00
2023-05-05T09:51:05.890Z,573.00
2023-05-05T09:52:05.904Z,604.00
2023-05-05T09:53:05.877Z,836.00
2023-05-05T09:54:05.924Z,1141.00
2023-05-05T09:55:05.884Z,1233.00
2023-05-05T09:56:05.897Z,1361.00
2023-05-05T09:57:06.022Z,1213.00
2023-05-05T09:58:05.991Z,1268.00
2023-05-05T09:59:06.050Z,902.00
2023-05-05T10:00:06.237Z,728.00
2023-05-05T10:01:06.217Z,923.00
2023-05-05T10:02:06.163Z,724.00
2023-05-05T10:03:06.248Z,872.00
2023-05-05T10:04:06.206Z,968.00
2023-05-05T10:05:06.763Z,1041.00
2023-05-05T10:06:06.198Z,1261.00
2023-05-05T10:07:06.192Z,1434.00
2023-05-05T10:08:06.233Z,1387.00
2023-05-05T10:09:06.296Z,1104.00
2023-05-05T10:10:06.463Z,884.00
2023-05-05T10:11:06.298Z,990.00
2023-05-05T10:12:06.291Z,1288.00
2023-05-05T10:13:06.341Z,1168.00
2023-05-05T10:14:06.330Z,806.00
2023-05-05T10:15:06.397Z,612.00
2023-05-05T10:16:06.560Z,766.00
2023-05-05T10:17:06.516Z,938.00
2023-05-05T10:18:08.221Z,1017.00
2023-05-05T10:19:06.572Z,1031.00
2023-05-05T10:20:06.887Z,1050.00
2023-05-05T10:21:06.713Z,1137.00
2023-05-05T10:22:06.698Z,651.00
2023-05-05T10:23:06.719Z,651.00
2023-05-05T10:24:06.775Z,559.00
2023-05-05T10:25:06.842Z,613.00
2023-05-05T10:26:06.862Z,690.00
2023-05-05T10:27:07.002Z,654.00
2023-05-05T10:28:07.013Z,609.00
2023-05-05T10:29:07.230Z,613.00
2023-05-05T10:30:07.418Z,600.00
2023-05-05T10:31:16.487Z,822.00
2023-05-05T10:32:24.386Z,832.00
2023-05-05T10:33:22.870Z,835.00
2023-05-05T10:35:07.134Z,921.00
2023-05-05T10:36:07.185Z,1005.00
2023-05-05T10:37:07.145Z,1152.00
2023-05-05T10:38:07.114Z,1476.00
2023-05-05T10:39:07.158Z,1747.00
2023-05-05T10:40:07.526Z,1869.00
2023-05-05T10:41:07.112Z,1899.00
2023-05-05T10:42:07.095Z,1914.00
2023-05-05T10:43:07.119Z,2098.00
2023-05-05T10:44:07.086Z,2200.00
2023-05-05T10:45:07.082Z,2335.00
2023-05-05T10:46:07.163Z,2324.00
2023-05-05T10:47:07.067Z,2390.00
2023-05-05T10:48:07.183Z,2437.00
2023-05-05T10:49:07.073Z,2357.00
2023-05-05T10:50:07.287Z,2296.00
2023-05-05T10:51:07.042Z,2394.00
2023-05-05T10:52:07.019Z,2345.00
2023-05-05T10:53:07.012Z,2446.00
2023-05-05T10:54:07.066Z,2700.00
2023-05-05T10:55:07.025Z,2825.00
2023-05-05T10:56:06.996Z,2974.00
2023-05-05T10:57:07.002Z,2944.00
2023-05-05T10:58:07.006Z,3077.00
2023-05-05T10:59:07.004Z,3122.00
2023-05-05T11:00:07.057Z,3065.00
2023-05-05T11:01:06.998Z,3026.00
2023-05-05T11:02:06.964Z,3067.00
2023-05-05T11:03:07.035Z,3071.00
2023-05-05T11:04:07.088Z,3146.00
2023-05-05T11:05:06.964Z,3177.00
2023-05-05T11:06:06.942Z,3184.00
2023-05-05T11:07:06.931Z,3187.00
2023-05-05T11:08:06.922Z,3244.00
2023-05-05T11:09:06.962Z,3224.00
2023-05-05T11:10:07.452Z,3183.00
2023-05-05T11:11:06.902Z,3176.00
2023-05-05T11:12:06.902Z,3260.00
2023-05-05T11:13:06.930Z,3174.00
2023-05-05T11:14:06.877Z,3021.00
2023-05-05T11:15:07.225Z,2895.00
2023-05-05T11:16:06.900Z,2739.00
2023-05-05T11:17:06.918Z,2686.00
2023-05-05T11:18:07.866Z,2752.00
2023-05-05T11:19:06.842Z,2576.00
2023-05-05T11:20:07.405Z,2463.00
2023-05-05T11:21:06.824Z,2509.00
2023-05-05T11:22:06.941Z,2518.00
2023-05-05T11:23:06.969Z,2515.00
2023-05-05T11:24:06.840Z,2461.00
2023-05-05T11:25:06.886Z,2510.00
2023-05-05T11:26:06.913Z,2509.00
2023-05-05T11:27:06.964Z,2434.00
2023-05-05T11:28:07.012Z,2315.00
2023-05-05T11:29:07.138Z,2442.00
2023-05-05T11:30:07.436Z,2509.00
2023-05-05T11:31:07.175Z,2445.00
2023-05-05T11:32:07.190Z,2429.00
2023-05-05T11:33:07.400Z,2377.00
2023-05-05T11:34:07.290Z,2401.00
2023-05-05T11:35:07.342Z,2404.00
2023-05-05T11:36:07.694Z,2429.00
2023-05-05T11:37:07.468Z,2314.00
2023-05-05T11:38:07.491Z,2374.00
2023-05-05T11:39:07.573Z,2467.00
2023-05-05T11:40:07.785Z,2423.00
2023-05-05T11:41:07.692Z,2481.00
2023-05-05T11:42:10.747Z,2542.00
2023-05-05T11:43:07.733Z,2558.00
2023-05-05T11:44:07.734Z,2483.00
2023-05-05T11:45:07.738Z,2519.00
2023-05-05T11:46:07.718Z,2472.00
2023-05-05T11:47:07.718Z,2543.00
2023-05-05T11:48:08.109Z,2572.00
2023-05-05T11:49:07.699Z,2407.00
2023-05-05T11:50:07.961Z,2399.00
2023-05-05T11:51:07.674Z,2454.00
2023-05-05T11:52:07.689Z,2373.00
2023-05-05T11:53:07.676Z,2440.00
2023-05-05T11:54:07.671Z,2434.00
2023-05-05T11:55:07.649Z,2375.00
2023-05-05T11:56:07.642Z,2316.00
2023-05-05T11:57:07.722Z,2369.00
2023-05-05T11:58:07.666Z,2320.00
2023-05-05T11:59:07.619Z,2290.00
2023-05-05T12:00:07.944Z,2322.00
2023-05-05T12:01:07.596Z,2286.00
2023-05-05T12:02:07.610Z,2210.00
2023-05-05T12:03:07.716Z,2258.00
2023-05-05T12:04:07.799Z,2236.00
2023-05-05T12:05:07.595Z,2252.00
2023-05-05T12:06:07.588Z,2236.00
2023-05-05T12:07:07.637Z,2263.00
2023-05-05T12:08:07.592Z,2228.00
2023-05-05T12:09:07.559Z,2238.00